DGFRA EDRY-EDFM
Flight info
| Callsign | DGFRA |
|---|---|
| Flight time | 0h 36m |
| Altitude | 17000 |
| Route | VFR |
| Aircraft | DA42/L-BDGLORVWY/S |
Departure
| Time | 2026-05-08 18:52 |
|---|---|
| Airport | Speyer Airfield (EDRY) |
Arrival
| Time | 2026-05-08 19:29 |
|---|---|
| Airport | Mannheim-City Airport (EDFM) |
| Time | Latitude | Longitude | Altitude | Speed | Heading |
|---|---|---|---|---|---|
| 2026-05-08 18:52 | 49.36064 | 8.44533 | 1533 ft | 143 kts | 357° |
| 2026-05-08 18:52 | 49.37080 | 8.44339 | 1616 ft | 150 kts | 356° |
| 2026-05-08 18:53 | 49.38118 | 8.44139 | 1637 ft | 151 kts | 357° |
| 2026-05-08 18:53 | 49.39179 | 8.44012 | 1579 ft | 156 kts | 3° |
| 2026-05-08 18:53 | 49.40258 | 8.44139 | 1557 ft | 149 kts | 10° |
| 2026-05-08 18:53 | 49.41214 | 8.44355 | 1610 ft | 141 kts | 14° |
| 2026-05-08 18:54 | 49.42178 | 8.44735 | 1554 ft | 142 kts | 18° |
| 2026-05-08 18:54 | 49.43113 | 8.45131 | 1490 ft | 144 kts | 15° |
| 2026-05-08 18:54 | 49.44118 | 8.45384 | 1261 ft | 147 kts | 14° |
| 2026-05-08 18:54 | 49.45043 | 8.45754 | 1228 ft | 131 kts | 19° |
| 2026-05-08 18:55 | 49.46779 | 8.46686 | 874 ft | 133 kts | 23° |
| 2026-05-08 18:55 | 49.47403 | 8.47580 | 810 ft | 125 kts | 75° |
| 2026-05-08 18:55 | 49.47358 | 8.48800 | 594 ft | 95 kts | 84° |
| 2026-05-08 18:56 | 49.47330 | 8.49730 | 463 ft | 89 kts | 89° |
| 2026-05-08 18:56 | 49.47296 | 8.50680 | 338 ft | 86 kts | 89° |
| 2026-05-08 18:56 | 49.47273 | 8.51417 | 310 ft | 51 kts | 90° |
| 2026-05-08 18:56 | 49.47238 | 8.52143 | 404 ft | 77 kts | 90° |
| 2026-05-08 18:57 | 49.46862 | 8.52867 | 547 ft | 111 kts | 172° |
| 2026-05-08 18:57 | 49.46053 | 8.52605 | 704 ft | 136 kts | 200° |
| 2026-05-08 18:57 | 49.45873 | 8.51393 | 983 ft | 131 kts | 290° |
| 2026-05-08 18:57 | 49.46132 | 8.49972 | 1069 ft | 148 kts | 288° |
| 2026-05-08 18:58 | 49.46386 | 8.48399 | 1058 ft | 153 kts | 286° |
| 2026-05-08 18:58 | 49.46734 | 8.46948 | 1172 ft | 134 kts | 319° |
| 2026-05-08 18:58 | 49.47497 | 8.46968 | 1052 ft | 110 kts | 53° |
| 2026-05-08 18:58 | 49.47386 | 8.47960 | 831 ft | 88 kts | 98° |
| 2026-05-08 18:59 | 49.47361 | 8.48834 | 607 ft | 84 kts | 89° |
| 2026-05-08 18:59 | 49.47329 | 8.49742 | 454 ft | 85 kts | 89° |
| 2026-05-08 18:59 | 49.47299 | 8.50633 | 335 ft | 82 kts | 86° |
| 2026-05-08 18:59 | 49.47274 | 8.51392 | 311 ft | 74 kts | 88° |
| 2026-05-08 19:00 | 49.47224 | 8.52269 | 456 ft | 89 kts | 88° |
| 2026-05-08 19:00 | 49.46926 | 8.53094 | 694 ft | 103 kts | 159° |
| 2026-05-08 19:00 | 49.46186 | 8.52949 | 904 ft | 118 kts | 192° |
| 2026-05-08 19:00 | 49.45757 | 8.52057 | 1160 ft | 121 kts | 288° |
| 2026-05-08 19:01 | 49.45989 | 8.50648 | 1198 ft | 147 kts | 287° |
| 2026-05-08 19:01 | 49.46266 | 8.49060 | 1254 ft | 154 kts | 288° |
| 2026-05-08 19:01 | 49.46566 | 8.47555 | 1156 ft | 128 kts | 306° |
| 2026-05-08 19:01 | 49.47168 | 8.47351 | 1209 ft | 87 kts | 24° |
| 2026-05-08 19:02 | 49.47473 | 8.47928 | 912 ft | 78 kts | 85° |
| 2026-05-08 19:02 | 49.47430 | 8.48861 | 736 ft | 94 kts | 89° |
| 2026-05-08 19:02 | 49.47407 | 8.49797 | 570 ft | 81 kts | 88° |
| 2026-05-08 19:02 | 49.47370 | 8.50664 | 408 ft | 83 kts | 95° |
| 2026-05-08 19:03 | 49.47353 | 8.51456 | 306 ft | 56 kts | 88° |
| 2026-05-08 19:03 | 49.47318 | 8.52171 | 409 ft | 72 kts | 89° |
| 2026-05-08 19:03 | 49.47234 | 8.53058 | 475 ft | 101 kts | 114° |
| 2026-05-08 19:03 | 49.46552 | 8.53225 | 739 ft | 116 kts | 197° |
| 2026-05-08 19:04 | 49.45733 | 8.52667 | 798 ft | 137 kts | 230° |
| 2026-05-08 19:04 | 49.45778 | 8.51295 | 999 ft | 143 kts | 289° |
| 2026-05-08 19:04 | 49.46101 | 8.49799 | 991 ft | 149 kts | 290° |
| 2026-05-08 19:04 | 49.46379 | 8.48449 | 946 ft | 117 kts | 290° |
| 2026-05-08 19:05 | 49.46832 | 8.47745 | 883 ft | 83 kts | 9° |
| 2026-05-08 19:05 | 49.47332 | 8.48124 | 711 ft | 82 kts | 32° |
| 2026-05-08 19:05 | 49.47419 | 8.48928 | 615 ft | 82 kts | 89° |
| 2026-05-08 19:05 | 49.47384 | 8.49806 | 532 ft | 84 kts | 89° |
| 2026-05-08 19:06 | 49.47381 | 8.50708 | 397 ft | 85 kts | 88° |
| 2026-05-08 19:06 | 49.47342 | 8.51511 | 307 ft | 57 kts | 88° |
| 2026-05-08 19:06 | 49.47300 | 8.52278 | 365 ft | 82 kts | 91° |
| 2026-05-08 19:06 | 49.47144 | 8.53192 | 487 ft | 100 kts | 126° |
| 2026-05-08 19:07 | 49.46423 | 8.53377 | 687 ft | 119 kts | 186° |
| 2026-05-08 19:07 | 49.45654 | 8.52844 | 897 ft | 124 kts | 255° |
| 2026-05-08 19:07 | 49.45830 | 8.51514 | 1033 ft | 140 kts | 287° |
| 2026-05-08 19:07 | 49.46074 | 8.50035 | 1158 ft | 146 kts | 280° |
| 2026-05-08 19:08 | 49.46146 | 8.48420 | 1163 ft | 155 kts | 275° |
| 2026-05-08 19:08 | 49.46183 | 8.46820 | 1173 ft | 147 kts | 273° |
| 2026-05-08 19:08 | 49.46195 | 8.45435 | 1154 ft | 107 kts | 272° |
| 2026-05-08 19:08 | 49.46214 | 8.44420 | 1258 ft | 96 kts | 274° |
| 2026-05-08 19:09 | 49.46450 | 8.43618 | 1201 ft | 92 kts | 347° |
| 2026-05-08 19:09 | 49.46871 | 8.44088 | 1205 ft | 87 kts | 64° |
| 2026-05-08 19:09 | 49.47171 | 8.44874 | 1239 ft | 81 kts | 60° |
| 2026-05-08 19:09 | 49.47418 | 8.45673 | 1098 ft | 85 kts | 68° |
| 2026-05-08 19:10 | 49.47429 | 8.46577 | 931 ft | 84 kts | 88° |
| 2026-05-08 19:10 | 49.47412 | 8.47480 | 843 ft | 84 kts | 86° |
| 2026-05-08 19:10 | 49.47376 | 8.48397 | 665 ft | 88 kts | 86° |
| 2026-05-08 19:10 | 49.47345 | 8.49337 | 518 ft | 84 kts | 91° |
| 2026-05-08 19:11 | 49.47315 | 8.50212 | 398 ft | 81 kts | 89° |
| 2026-05-08 19:11 | 49.47284 | 8.51067 | 312 ft | 66 kts | 86° |
| 2026-05-08 19:11 | 49.47254 | 8.51835 | 352 ft | 81 kts | 89° |
| 2026-05-08 19:11 | 49.47184 | 8.52736 | 505 ft | 99 kts | 111° |
| 2026-05-08 19:12 | 49.46551 | 8.53039 | 761 ft | 111 kts | 204° |
| 2026-05-08 19:12 | 49.45771 | 8.52471 | 844 ft | 136 kts | 202° |
| 2026-05-08 19:12 | 49.44856 | 8.51904 | 1007 ft | 149 kts | 196° |
| 2026-05-08 19:12 | 49.43844 | 8.51715 | 1248 ft | 149 kts | 184° |
| 2026-05-08 19:13 | 49.42787 | 8.51476 | 1365 ft | 156 kts | 188° |
| 2026-05-08 19:13 | 49.41726 | 8.51045 | 1455 ft | 160 kts | 192° |
| 2026-05-08 19:13 | 49.40638 | 8.50654 | 1516 ft | 161 kts | 187° |
| 2026-05-08 19:13 | 49.39518 | 8.50417 | 1570 ft | 162 kts | 181° |
| 2026-05-08 19:14 | 49.38389 | 8.50327 | 1621 ft | 162 kts | 177° |
| 2026-05-08 19:14 | 49.37276 | 8.50553 | 1596 ft | 162 kts | 158° |
| 2026-05-08 19:14 | 49.36203 | 8.51122 | 1486 ft | 166 kts | 151° |
| 2026-05-08 19:14 | 49.35860 | 8.52391 | 1695 ft | 132 kts | 60° |
| 2026-05-08 19:15 | 49.36693 | 8.52668 | 1687 ft | 137 kts | 335° |
| 2026-05-08 19:15 | 49.36955 | 8.51408 | 1748 ft | 129 kts | 244° |
| 2026-05-08 19:15 | 49.36253 | 8.51041 | 1701 ft | 112 kts | 140° |
| 2026-05-08 19:15 | 49.36375 | 8.51869 | 1644 ft | 106 kts | 17° |
| 2026-05-08 19:16 | 49.36836 | 8.51076 | 1503 ft | 128 kts | 251° |
| 2026-05-08 19:16 | 49.36131 | 8.50765 | 1354 ft | 119 kts | 132° |
| 2026-05-08 19:16 | 49.36241 | 8.51724 | 1342 ft | 110 kts | 18° |
| 2026-05-08 19:16 | 49.36716 | 8.50968 | 1264 ft | 123 kts | 254° |
| 2026-05-08 19:17 | 49.36076 | 8.50633 | 1195 ft | 111 kts | 138° |
| 2026-05-08 19:17 | 49.35331 | 8.50640 | 1187 ft | 112 kts | 210° |
| 2026-05-08 19:17 | 49.34696 | 8.49971 | 1168 ft | 110 kts | 217° |
| 2026-05-08 19:17 | 49.34495 | 8.49084 | 1135 ft | 85 kts | 276° |
| 2026-05-08 19:18 | 49.34331 | 8.48157 | 1041 ft | 96 kts | 213° |
| 2026-05-08 19:18 | 49.33761 | 8.48375 | 949 ft | 96 kts | 169° |
| 2026-05-08 19:18 | 49.33084 | 8.48348 | 855 ft | 97 kts | 178° |
| 2026-05-08 19:18 | 49.32468 | 8.48620 | 791 ft | 91 kts | 150° |
| 2026-05-08 19:19 | 49.31885 | 8.48629 | 796 ft | 82 kts | 181° |
| 2026-05-08 19:19 | 49.31315 | 8.48636 | 804 ft | 84 kts | 171° |
| 2026-05-08 19:19 | 49.30708 | 8.48728 | 893 ft | 90 kts | 172° |
| 2026-05-08 19:19 | 49.30080 | 8.48824 | 993 ft | 90 kts | 169° |
| 2026-05-08 19:20 | 49.29448 | 8.49003 | 1053 ft | 94 kts | 162° |
| 2026-05-08 19:20 | 49.29235 | 8.49076 | 1078 ft | 92 kts | 161° |
| 2026-05-08 19:20 | 49.28249 | 8.49507 | 1263 ft | 87 kts | 158° |
| 2026-05-08 19:20 | 49.27664 | 8.49792 | 1389 ft | 88 kts | 155° |
| 2026-05-08 19:21 | 49.27057 | 8.50176 | 1360 ft | 99 kts | 149° |
| 2026-05-08 19:21 | 49.26432 | 8.49868 | 1304 ft | 102 kts | 228° |
| 2026-05-08 19:21 | 49.26062 | 8.48946 | 1253 ft | 99 kts | 257° |
| 2026-05-08 19:21 | 49.26273 | 8.48046 | 1262 ft | 101 kts | 300° |
| 2026-05-08 19:22 | 49.26615 | 8.47107 | 1174 ft | 101 kts | 309° |
| 2026-05-08 19:22 | 49.27113 | 8.46502 | 1048 ft | 86 kts | 343° |
| 2026-05-08 19:22 | 49.27678 | 8.46323 | 883 ft | 82 kts | 356° |
| 2026-05-08 19:22 | 49.28223 | 8.46067 | 793 ft | 81 kts | 342° |
| 2026-05-08 19:23 | 49.28795 | 8.45843 | 933 ft | 94 kts | 356° |
| 2026-05-08 19:23 | 49.29333 | 8.46412 | 1180 ft | 108 kts | 66° |
| 2026-05-08 19:23 | 49.29639 | 8.47578 | 1359 ft | 120 kts | 66° |
| 2026-05-08 19:23 | 49.29958 | 8.48799 | 1345 ft | 121 kts | 70° |
| 2026-05-08 19:24 | 49.29679 | 8.49764 | 1406 ft | 104 kts | 150° |
| 2026-05-08 19:24 | 49.29030 | 8.50133 | 1289 ft | 98 kts | 158° |
| 2026-05-08 19:24 | 49.28370 | 8.50383 | 1178 ft | 97 kts | 163° |
| 2026-05-08 19:24 | 49.27713 | 8.50525 | 1110 ft | 96 kts | 170° |
| 2026-05-08 19:25 | 49.27018 | 8.50719 | 977 ft | 103 kts | 163° |
| 2026-05-08 19:25 | 49.26333 | 8.50961 | 976 ft | 101 kts | 162° |
| 2026-05-08 19:25 | 49.25686 | 8.51232 | 1112 ft | 96 kts | 161° |
| 2026-05-08 19:25 | 49.25036 | 8.51416 | 1233 ft | 99 kts | 182° |
| 2026-05-08 19:26 | 49.24431 | 8.50872 | 1284 ft | 108 kts | 227° |
| 2026-05-08 19:26 | 49.24208 | 8.49795 | 1323 ft | 111 kts | 271° |
| 2026-05-08 19:26 | 49.24359 | 8.48618 | 1356 ft | 117 kts | 298° |
| 2026-05-08 19:26 | 49.24811 | 8.47581 | 1334 ft | 115 kts | 317° |
| 2026-05-08 19:27 | 49.25459 | 8.47090 | 1259 ft | 95 kts | 351° |
| 2026-05-08 19:27 | 49.26051 | 8.46912 | 1210 ft | 83 kts | 357° |
| 2026-05-08 19:27 | 49.26624 | 8.46719 | 1156 ft | 87 kts | 345° |
| 2026-05-08 19:27 | 49.27195 | 8.46470 | 982 ft | 84 kts | 352° |
| 2026-05-08 19:28 | 49.27767 | 8.46266 | 850 ft | 87 kts | 343° |
| 2026-05-08 19:28 | 49.28362 | 8.46012 | 686 ft | 88 kts | 347° |
| 2026-05-08 19:28 | 49.28925 | 8.45790 | 533 ft | 82 kts | 346° |
| 2026-05-08 19:28 | 49.29476 | 8.45571 | 386 ft | 82 kts | 346° |
| 2026-05-08 19:29 | 49.29976 | 8.45378 | 324 ft | 58 kts | 344° |
| 2026-05-08 19:29 | 49.30355 | 8.45225 | 320 ft | 37 kts | 345° |
| 2026-05-08 19:29 | 49.30471 | 8.45258 | 321 ft | 12 kts | 71° |
| 2026-05-08 19:29 | 49.30529 | 8.45279 | 322 ft | 9 kts | 348° |
| 2026-05-08 19:30 | 49.30655 | 8.45229 | 322 ft | 23 kts | 346° |
| 2026-05-08 19:30 | 49.30786 | 8.45160 | 322 ft | 17 kts | 339° |
| 2026-05-08 19:30 | 49.30852 | 8.45115 | 323 ft | 5 kts | 282° |
| 2026-05-08 19:30 | 49.30851 | 8.45106 | 323 ft | 0 kts | 243° |
| 2026-05-08 19:31 | 49.30850 | 8.45104 | 323 ft | 0 kts | 250° |
| 2026-05-08 19:32 | 49.30843 | 8.45056 | 337 ft | 17 kts | 261° |
| 2026-05-08 19:32 | 49.30912 | 8.44950 | 328 ft | 15 kts | 255° |
| 2026-05-08 19:32 | 49.30851 | 8.44898 | 328 ft | 8 kts | 165° |
| 2026-05-08 19:32 | 49.30780 | 8.44927 | 328 ft | 11 kts | 167° |
| 2026-05-08 19:33 | 49.30735 | 8.44923 | 328 ft | 4 kts | 227° |
| 2026-05-08 19:33 | 49.30740 | 8.44919 | 328 ft | 0 kts | 69° |